sensor_id;sensor_type;location;lat;lon;timestamp;P1;durP1;ratioP1;P2;durP2;ratioP2
84329;SDS011;74510;42.676;23.432;2024-01-30T00:01:07;9.02;;;4.25;;
84329;SDS011;74510;42.676;23.432;2024-01-30T00:03:32;9.05;;;5.18;;
84329;SDS011;74510;42.676;23.432;2024-01-30T00:05:58;9.55;;;5.05;;
84329;SDS011;74510;42.676;23.432;2024-01-30T00:08:23;8.85;;;5.30;;
84329;SDS011;74510;42.676;23.432;2024-01-30T00:10:49;19.92;;;10.43;;
84329;SDS011;74510;42.676;23.432;2024-01-30T00:13:14;18.52;;;7.97;;
84329;SDS011;74510;42.676;23.432;2024-01-30T00:15:42;16.38;;;7.93;;
84329;SDS011;74510;42.676;23.432;2024-01-30T00:18:08;18.15;;;9.15;;
84329;SDS011;74510;42.676;23.432;2024-01-30T00:20:33;14.48;;;7.28;;
84329;SDS011;74510;42.676;23.432;2024-01-30T00:22:58;16.48;;;7.78;;
84329;SDS011;74510;42.676;23.432;2024-01-30T00:25:24;13.60;;;7.38;;
84329;SDS011;74510;42.676;23.432;2024-01-30T00:27:49;17.88;;;7.65;;
84329;SDS011;74510;42.676;23.432;2024-01-30T00:30:15;18.50;;;7.40;;
84329;SDS011;74510;42.676;23.432;2024-01-30T00:32:40;17.20;;;8.30;;
84329;SDS011;74510;42.676;23.432;2024-01-30T00:35:05;17.02;;;7.45;;
84329;SDS011;74510;42.676;23.432;2024-01-30T00:37:31;18.23;;;7.20;;
84329;SDS011;74510;42.676;23.432;2024-01-30T00:39:57;18.63;;;9.07;;
84329;SDS011;74510;42.676;23.432;2024-01-30T00:42:22;16.52;;;9.35;;
84329;SDS011;74510;42.676;23.432;2024-01-30T00:44:49;28.73;;;14.70;;
84329;SDS011;74510;42.676;23.432;2024-01-30T00:47:14;17.13;;;9.65;;
84329;SDS011;74510;42.676;23.432;2024-01-30T00:49:40;11.50;;;6.68;;
84329;SDS011;74510;42.676;23.432;2024-01-30T00:52:05;16.48;;;7.95;;
84329;SDS011;74510;42.676;23.432;2024-01-30T00:54:30;9.85;;;5.40;;
84329;SDS011;74510;42.676;23.432;2024-01-30T00:56:56;16.58;;;8.90;;
84329;SDS011;74510;42.676;23.432;2024-01-30T00:59:22;64.40;;;23.92;;
84329;SDS011;74510;42.676;23.432;2024-01-30T01:01:47;25.98;;;13.55;;
84329;SDS011;74510;42.676;23.432;2024-01-30T01:04:12;24.17;;;11.98;;
84329;SDS011;74510;42.676;23.432;2024-01-30T01:06:38;27.55;;;13.23;;
84329;SDS011;74510;42.676;23.432;2024-01-30T01:09:03;29.15;;;13.05;;
84329;SDS011;74510;42.676;23.432;2024-01-30T01:11:29;19.08;;;8.70;;
84329;SDS011;74510;42.676;23.432;2024-01-30T01:13:54;17.30;;;9.57;;
84329;SDS011;74510;42.676;23.432;2024-01-30T01:16:20;22.35;;;9.38;;
84329;SDS011;74510;42.676;23.432;2024-01-30T01:18:45;16.95;;;8.98;;
84329;SDS011;74510;42.676;23.432;2024-01-30T01:21:10;19.35;;;9.85;;
84329;SDS011;74510;42.676;23.432;2024-01-30T01:23:36;21.30;;;9.85;;
84329;SDS011;74510;42.676;23.432;2024-01-30T01:26:01;21.15;;;10.15;;
84329;SDS011;74510;42.676;23.432;2024-01-30T01:28:27;19.27;;;7.05;;
84329;SDS011;74510;42.676;23.432;2024-01-30T01:30:52;16.45;;;7.63;;
84329;SDS011;74510;42.676;23.432;2024-01-30T01:33:17;13.00;;;7.45;;
84329;SDS011;74510;42.676;23.432;2024-01-30T01:35:43;23.40;;;10.13;;
84329;SDS011;74510;42.676;23.432;2024-01-30T01:38:08;54.05;;;21.85;;
84329;SDS011;74510;42.676;23.432;2024-01-30T01:40:34;22.83;;;11.02;;
84329;SDS011;74510;42.676;23.432;2024-01-30T01:43:02;23.15;;;8.98;;
84329;SDS011;74510;42.676;23.432;2024-01-30T01:45:29;19.50;;;8.95;;
84329;SDS011;74510;42.676;23.432;2024-01-30T01:47:54;16.52;;;7.47;;
84329;SDS011;74510;42.676;23.432;2024-01-30T01:50:20;16.52;;;8.90;;
84329;SDS011;74510;42.676;23.432;2024-01-30T01:52:47;13.48;;;7.78;;
84329;SDS011;74510;42.676;23.432;2024-01-30T01:55:14;17.13;;;8.18;;
84329;SDS011;74510;42.676;23.432;2024-01-30T01:57:43;15.48;;;8.30;;
84329;SDS011;74510;42.676;23.432;2024-01-30T02:00:09;20.17;;;9.48;;
84329;SDS011;74510;42.676;23.432;2024-01-30T02:02:35;15.25;;;7.57;;
84329;SDS011;74510;42.676;23.432;2024-01-30T02:05:02;24.52;;;11.30;;
84329;SDS011;74510;42.676;23.432;2024-01-30T02:07:28;24.35;;;10.80;;
84329;SDS011;74510;42.676;23.432;2024-01-30T02:09:53;26.20;;;11.15;;
84329;SDS011;74510;42.676;23.432;2024-01-30T02:12:19;29.98;;;12.88;;
84329;SDS011;74510;42.676;23.432;2024-01-30T02:14:45;34.97;;;12.55;;
84329;SDS011;74510;42.676;23.432;2024-01-30T02:17:12;34.67;;;11.57;;
84329;SDS011;74510;42.676;23.432;2024-01-30T02:19:37;28.38;;;12.40;;
84329;SDS011;74510;42.676;23.432;2024-01-30T02:22:03;26.75;;;12.30;;
84329;SDS011;74510;42.676;23.432;2024-01-30T02:24:29;22.55;;;10.63;;
84329;SDS011;74510;42.676;23.432;2024-01-30T02:26:55;29.63;;;12.20;;
84329;SDS011;74510;42.676;23.432;2024-01-30T02:29:20;22.52;;;10.55;;
84329;SDS011;74510;42.676;23.432;2024-01-30T02:31:46;20.98;;;9.98;;
84329;SDS011;74510;42.676;23.432;2024-01-30T02:34:12;20.13;;;9.32;;
84329;SDS011;74510;42.676;23.432;2024-01-30T02:36:37;16.38;;;8.32;;
84329;SDS011;74510;42.676;23.432;2024-01-30T02:39:03;13.67;;;6.83;;
84329;SDS011;74510;42.676;23.432;2024-01-30T02:41:29;15.95;;;7.15;;
84329;SDS011;74510;42.676;23.432;2024-01-30T02:43:54;15.75;;;8.85;;
84329;SDS011;74510;42.676;23.432;2024-01-30T02:46:19;16.35;;;7.82;;
84329;SDS011;74510;42.676;23.432;2024-01-30T02:48:45;16.88;;;8.63;;
84329;SDS011;74510;42.676;23.432;2024-01-30T02:51:10;18.20;;;9.02;;
84329;SDS011;74510;42.676;23.432;2024-01-30T02:53:36;18.27;;;8.60;;
84329;SDS011;74510;42.676;23.432;2024-01-30T02:56:02;19.90;;;10.10;;
84329;SDS011;74510;42.676;23.432;2024-01-30T02:58:28;16.20;;;8.50;;
84329;SDS011;74510;42.676;23.432;2024-01-30T03:00:53;19.27;;;8.98;;
84329;SDS011;74510;42.676;23.432;2024-01-30T03:03:19;12.43;;;7.25;;
84329;SDS011;74510;42.676;23.432;2024-01-30T03:05:44;11.88;;;6.07;;
84329;SDS011;74510;42.676;23.432;2024-01-30T03:08:09;9.93;;;6.38;;
84329;SDS011;74510;42.676;23.432;2024-01-30T03:10:35;15.80;;;8.38;;
84329;SDS011;74510;42.676;23.432;2024-01-30T03:13:00;12.95;;;7.68;;
84329;SDS011;74510;42.676;23.432;2024-01-30T03:15:26;8.48;;;4.82;;
84329;SDS011;74510;42.676;23.432;2024-01-30T03:17:52;10.88;;;5.78;;
84329;SDS011;74510;42.676;23.432;2024-01-30T03:20:18;9.95;;;4.65;;
84329;SDS011;74510;42.676;23.432;2024-01-30T03:22:44;10.93;;;4.60;;
84329;SDS011;74510;42.676;23.432;2024-01-30T03:25:10;9.15;;;5.70;;
84329;SDS011;74510;42.676;23.432;2024-01-30T03:27:35;8.45;;;5.18;;
84329;SDS011;74510;42.676;23.432;2024-01-30T03:30:01;13.73;;;5.80;;
84329;SDS011;74510;42.676;23.432;2024-01-30T03:32:26;14.20;;;8.70;;
84329;SDS011;74510;42.676;23.432;2024-01-30T03:34:52;17.67;;;10.73;;
84329;SDS011;74510;42.676;23.432;2024-01-30T03:37:17;21.02;;;10.32;;
84329;SDS011;74510;42.676;23.432;2024-01-30T03:39:43;15.07;;;8.55;;
84329;SDS011;74510;42.676;23.432;2024-01-30T03:42:08;21.02;;;10.05;;
84329;SDS011;74510;42.676;23.432;2024-01-30T03:44:34;14.82;;;8.32;;
84329;SDS011;74510;42.676;23.432;2024-01-30T03:46:59;16.77;;;9.18;;
84329;SDS011;74510;42.676;23.432;2024-01-30T03:49:24;12.43;;;7.75;;
84329;SDS011;74510;42.676;23.432;2024-01-30T03:51:50;16.10;;;8.45;;
84329;SDS011;74510;42.676;23.432;2024-01-30T03:54:15;14.45;;;8.23;;
84329;SDS011;74510;42.676;23.432;2024-01-30T03:56:41;16.45;;;9.05;;
84329;SDS011;74510;42.676;23.432;2024-01-30T03:59:06;15.02;;;8.65;;
84329;SDS011;74510;42.676;23.432;2024-01-30T04:01:32;19.25;;;10.98;;
84329;SDS011;74510;42.676;23.432;2024-01-30T04:03:58;17.50;;;9.30;;
84329;SDS011;74510;42.676;23.432;2024-01-30T04:06:23;22.73;;;11.90;;
84329;SDS011;74510;42.676;23.432;2024-01-30T04:08:49;16.52;;;10.02;;
84329;SDS011;74510;42.676;23.432;2024-01-30T04:11:14;24.77;;;11.50;;
84329;SDS011;74510;42.676;23.432;2024-01-30T04:13:40;28.67;;;14.48;;
84329;SDS011;74510;42.676;23.432;2024-01-30T04:16:07;31.00;;;14.80;;
84329;SDS011;74510;42.676;23.432;2024-01-30T04:18:33;22.55;;;12.05;;
84329;SDS011;74510;42.676;23.432;2024-01-30T04:20:59;17.67;;;10.25;;
84329;SDS011;74510;42.676;23.432;2024-01-30T04:23:24;19.00;;;8.32;;
84329;SDS011;74510;42.676;23.432;2024-01-30T04:25:50;12.90;;;8.23;;
84329;SDS011;74510;42.676;23.432;2024-01-30T04:28:15;21.75;;;11.00;;
84329;SDS011;74510;42.676;23.432;2024-01-30T04:30:40;22.50;;;10.75;;
84329;SDS011;74510;42.676;23.432;2024-01-30T04:33:06;28.42;;;12.52;;
84329;SDS011;74510;42.676;23.432;2024-01-30T04:35:31;30.52;;;12.13;;
84329;SDS011;74510;42.676;23.432;2024-01-30T04:37:57;14.43;;;8.13;;
84329;SDS011;74510;42.676;23.432;2024-01-30T04:40:22;9.80;;;6.28;;
84329;SDS011;74510;42.676;23.432;2024-01-30T04:42:48;12.00;;;7.22;;
84329;SDS011;74510;42.676;23.432;2024-01-30T04:45:13;13.05;;;7.25;;
84329;SDS011;74510;42.676;23.432;2024-01-30T04:47:39;27.02;;;10.43;;
84329;SDS011;74510;42.676;23.432;2024-01-30T04:50:05;20.05;;;9.65;;
84329;SDS011;74510;42.676;23.432;2024-01-30T04:52:32;44.25;;;20.35;;
84329;SDS011;74510;42.676;23.432;2024-01-30T04:54:57;26.95;;;13.32;;
84329;SDS011;74510;42.676;23.432;2024-01-30T04:57:22;24.67;;;11.40;;
84329;SDS011;74510;42.676;23.432;2024-01-30T04:59:48;20.67;;;11.63;;
84329;SDS011;74510;42.676;23.432;2024-01-30T05:02:13;23.30;;;12.65;;
84329;SDS011;74510;42.676;23.432;2024-01-30T05:04:40;22.23;;;13.43;;
84329;SDS011;74510;42.676;23.432;2024-01-30T05:07:06;21.13;;;11.85;;
84329;SDS011;74510;42.676;23.432;2024-01-30T05:09:31;23.90;;;13.15;;
84329;SDS011;74510;42.676;23.432;2024-01-30T05:11:56;26.38;;;15.10;;
84329;SDS011;74510;42.676;23.432;2024-01-30T05:14:23;29.80;;;17.30;;
84329;SDS011;74510;42.676;23.432;2024-01-30T05:16:48;28.58;;;16.27;;
84329;SDS011;74510;42.676;23.432;2024-01-30T05:19:14;17.05;;;9.95;;
84329;SDS011;74510;42.676;23.432;2024-01-30T05:21:41;19.80;;;12.30;;
84329;SDS011;74510;42.676;23.432;2024-01-30T05:24:06;24.75;;;16.02;;
84329;SDS011;74510;42.676;23.432;2024-01-30T05:29:00;34.50;;;18.88;;
84329;SDS011;74510;42.676;23.432;2024-01-30T05:31:25;26.08;;;14.00;;
84329;SDS011;74510;42.676;23.432;2024-01-30T05:33:52;22.65;;;13.43;;
84329;SDS011;74510;42.676;23.432;2024-01-30T05:36:17;26.70;;;14.90;;
84329;SDS011;74510;42.676;23.432;2024-01-30T05:38:43;29.65;;;15.05;;
84329;SDS011;74510;42.676;23.432;2024-01-30T05:41:08;38.80;;;16.35;;
84329;SDS011;74510;42.676;23.432;2024-01-30T05:43:34;34.10;;;15.93;;
84329;SDS011;74510;42.676;23.432;2024-01-30T05:46:00;30.58;;;15.10;;
84329;SDS011;74510;42.676;23.432;2024-01-30T05:48:25;30.02;;;16.15;;
84329;SDS011;74510;42.676;23.432;2024-01-30T05:50:51;42.90;;;18.52;;
84329;SDS011;74510;42.676;23.432;2024-01-30T05:53:16;31.48;;;13.68;;
84329;SDS011;74510;42.676;23.432;2024-01-30T05:55:42;21.55;;;12.75;;
84329;SDS011;74510;42.676;23.432;2024-01-30T05:58:07;21.67;;;11.88;;
84329;SDS011;74510;42.676;23.432;2024-01-30T06:00:32;25.85;;;14.30;;
84329;SDS011;74510;42.676;23.432;2024-01-30T06:02:58;31.60;;;13.40;;
84329;SDS011;74510;42.676;23.432;2024-01-30T06:05:23;18.63;;;10.55;;
84329;SDS011;74510;42.676;23.432;2024-01-30T06:07:49;32.28;;;15.55;;
84329;SDS011;74510;42.676;23.432;2024-01-30T06:10:14;36.40;;;17.00;;
84329;SDS011;74510;42.676;23.432;2024-01-30T06:12:40;25.92;;;14.93;;
84329;SDS011;74510;42.676;23.432;2024-01-30T06:15:05;23.48;;;13.18;;
84329;SDS011;74510;42.676;23.432;2024-01-30T06:17:31;31.05;;;13.73;;
84329;SDS011;74510;42.676;23.432;2024-01-30T06:19:57;30.90;;;14.73;;
84329;SDS011;74510;42.676;23.432;2024-01-30T06:22:23;27.08;;;13.90;;
84329;SDS011;74510;42.676;23.432;2024-01-30T06:24:48;24.70;;;12.98;;
84329;SDS011;74510;42.676;23.432;2024-01-30T06:27:14;30.92;;;16.70;;
84329;SDS011;74510;42.676;23.432;2024-01-30T06:29:40;18.50;;;9.32;;
84329;SDS011;74510;42.676;23.432;2024-01-30T06:32:07;22.95;;;11.70;;
84329;SDS011;74510;42.676;23.432;2024-01-30T06:34:33;45.55;;;22.17;;
84329;SDS011;74510;42.676;23.432;2024-01-30T06:36:58;38.92;;;21.35;;
84329;SDS011;74510;42.676;23.432;2024-01-30T06:39:24;36.08;;;19.00;;
84329;SDS011;74510;42.676;23.432;2024-01-30T06:41:50;35.97;;;18.23;;
84329;SDS011;74510;42.676;23.432;2024-01-30T06:44:15;119.55;;;46.65;;
84329;SDS011;74510;42.676;23.432;2024-01-30T06:46:40;89.03;;;39.55;;
84329;SDS011;74510;42.676;23.432;2024-01-30T06:49:06;126.00;;;48.80;;
84329;SDS011;74510;42.676;23.432;2024-01-30T06:51:31;146.15;;;52.72;;
84329;SDS011;74510;42.676;23.432;2024-01-30T06:53:57;133.63;;;50.05;;
84329;SDS011;74510;42.676;23.432;2024-01-30T06:56:22;98.60;;;35.85;;
84329;SDS011;74510;42.676;23.432;2024-01-30T06:58:48;82.53;;;29.90;;
84329;SDS011;74510;42.676;23.432;2024-01-30T07:01:14;48.70;;;18.48;;
84329;SDS011;74510;42.676;23.432;2024-01-30T07:03:40;42.22;;;16.77;;
84329;SDS011;74510;42.676;23.432;2024-01-30T07:06:06;35.20;;;13.35;;
84329;SDS011;74510;42.676;23.432;2024-01-30T07:08:31;23.88;;;10.38;;
84329;SDS011;74510;42.676;23.432;2024-01-30T07:10:57;39.75;;;12.80;;
84329;SDS011;74510;42.676;23.432;2024-01-30T07:13:22;43.40;;;14.50;;
84329;SDS011;74510;42.676;23.432;2024-01-30T07:15:48;32.72;;;11.80;;
84329;SDS011;74510;42.676;23.432;2024-01-30T07:18:13;26.17;;;10.38;;
84329;SDS011;74510;42.676;23.432;2024-01-30T07:20:39;33.90;;;14.13;;
84329;SDS011;74510;42.676;23.432;2024-01-30T07:23:11;13.68;;;7.40;;
84329;SDS011;74510;42.676;23.432;2024-01-30T07:25:39;10.98;;;5.95;;
84329;SDS011;74510;42.676;23.432;2024-01-30T07:28:06;12.65;;;7.05;;
84329;SDS011;74510;42.676;23.432;2024-01-30T07:32:59;13.43;;;8.00;;
84329;SDS011;74510;42.676;23.432;2024-01-30T07:35:25;11.48;;;5.75;;
84329;SDS011;74510;42.676;23.432;2024-01-30T07:37:50;5.47;;;3.60;;
84329;SDS011;74510;42.676;23.432;2024-01-30T07:40:16;6.28;;;3.50;;
84329;SDS011;74510;42.676;23.432;2024-01-30T07:42:42;19.13;;;9.63;;
84329;SDS011;74510;42.676;23.432;2024-01-30T07:45:08;6.68;;;3.85;;
84329;SDS011;74510;42.676;23.432;2024-01-30T07:47:33;7.80;;;3.85;;
84329;SDS011;74510;42.676;23.432;2024-01-30T07:49:59;6.53;;;3.28;;
84329;SDS011;74510;42.676;23.432;2024-01-30T07:52:24;5.70;;;3.60;;
84329;SDS011;74510;42.676;23.432;2024-01-30T07:54:50;6.75;;;3.90;;
84329;SDS011;74510;42.676;23.432;2024-01-30T07:57:16;4.95;;;3.65;;
84329;SDS011;74510;42.676;23.432;2024-01-30T07:59:45;4.57;;;2.72;;
84329;SDS011;74510;42.676;23.432;2024-01-30T08:02:11;2.83;;;2.00;;
84329;SDS011;74510;42.676;23.432;2024-01-30T08:04:37;4.57;;;3.65;;
84329;SDS011;74510;42.676;23.432;2024-01-30T08:07:03;3.85;;;2.45;;
84329;SDS011;74510;42.676;23.432;2024-01-30T08:09:28;4.93;;;3.05;;
84329;SDS011;74510;42.676;23.432;2024-01-30T08:11:54;4.82;;;3.03;;
84329;SDS011;74510;42.676;23.432;2024-01-30T08:14:19;4.20;;;2.72;;
84329;SDS011;74510;42.676;23.432;2024-01-30T08:16:45;7.63;;;3.22;;
84329;SDS011;74510;42.676;23.432;2024-01-30T08:19:10;6.00;;;3.85;;
84329;SDS011;74510;42.676;23.432;2024-01-30T08:21:36;4.97;;;3.25;;
84329;SDS011;74510;42.676;23.432;2024-01-30T08:24:03;3.60;;;2.03;;
84329;SDS011;74510;42.676;23.432;2024-01-30T08:26:29;2.55;;;1.90;;
84329;SDS011;74510;42.676;23.432;2024-01-30T08:28:55;2.97;;;2.20;;
84329;SDS011;74510;42.676;23.432;2024-01-30T08:31:20;3.88;;;2.40;;
84329;SDS011;74510;42.676;23.432;2024-01-30T08:33:46;4.30;;;3.10;;
84329;SDS011;74510;42.676;23.432;2024-01-30T08:36:11;5.10;;;2.80;;
84329;SDS011;74510;42.676;23.432;2024-01-30T08:38:37;4.30;;;2.95;;
84329;SDS011;74510;42.676;23.432;2024-01-30T08:41:02;6.68;;;3.85;;
84329;SDS011;74510;42.676;23.432;2024-01-30T08:43:28;3.75;;;2.40;;
84329;SDS011;74510;42.676;23.432;2024-01-30T08:45:54;4.70;;;2.92;;
84329;SDS011;74510;42.676;23.432;2024-01-30T08:48:20;4.97;;;2.90;;
84329;SDS011;74510;42.676;23.432;2024-01-30T08:53:13;6.13;;;2.53;;
84329;SDS011;74510;42.676;23.432;2024-01-30T08:55:39;4.97;;;2.75;;
84329;SDS011;74510;42.676;23.432;2024-01-30T08:58:05;10.73;;;5.75;;
84329;SDS011;74510;42.676;23.432;2024-01-30T09:00:31;3.78;;;2.95;;
84329;SDS011;74510;42.676;23.432;2024-01-30T09:02:57;6.13;;;3.22;;
84329;SDS011;74510;42.676;23.432;2024-01-30T09:05:23;11.20;;;4.53;;
84329;SDS011;74510;42.676;23.432;2024-01-30T09:07:49;6.75;;;4.00;;
84329;SDS011;74510;42.676;23.432;2024-01-30T09:10:15;8.00;;;4.72;;
84329;SDS011;74510;42.676;23.432;2024-01-30T09:12:41;8.10;;;3.55;;
84329;SDS011;74510;42.676;23.432;2024-01-30T09:15:10;3.05;;;1.85;;
84329;SDS011;74510;42.676;23.432;2024-01-30T09:17:36;3.90;;;3.42;;
84329;SDS011;74510;42.676;23.432;2024-01-30T09:20:01;9.32;;;5.10;;
84329;SDS011;74510;42.676;23.432;2024-01-30T09:22:27;12.93;;;6.22;;
84329;SDS011;74510;42.676;23.432;2024-01-30T09:24:52;18.63;;;7.78;;
84329;SDS011;74510;42.676;23.432;2024-01-30T09:27:17;9.00;;;4.40;;
84329;SDS011;74510;42.676;23.432;2024-01-30T09:29:43;7.63;;;3.50;;
84329;SDS011;74510;42.676;23.432;2024-01-30T09:32:08;6.18;;;3.35;;
84329;SDS011;74510;42.676;23.432;2024-01-30T09:34:34;6.45;;;4.47;;
84329;SDS011;74510;42.676;23.432;2024-01-30T09:36:59;15.32;;;8.80;;
84329;SDS011;74510;42.676;23.432;2024-01-30T09:39:25;9.43;;;4.00;;
84329;SDS011;74510;42.676;23.432;2024-01-30T09:41:56;2.95;;;2.55;;
84329;SDS011;74510;42.676;23.432;2024-01-30T09:44:30;5.72;;;3.00;;
84329;SDS011;74510;42.676;23.432;2024-01-30T09:46:56;6.53;;;3.92;;
84329;SDS011;74510;42.676;23.432;2024-01-30T09:49:23;10.40;;;5.60;;
84329;SDS011;74510;42.676;23.432;2024-01-30T09:51:50;5.63;;;3.17;;
84329;SDS011;74510;42.676;23.432;2024-01-30T09:54:16;4.05;;;2.65;;
84329;SDS011;74510;42.676;23.432;2024-01-30T09:56:42;6.75;;;2.63;;
84329;SDS011;74510;42.676;23.432;2024-01-30T09:59:07;5.40;;;2.90;;
84329;SDS011;74510;42.676;23.432;2024-01-30T10:01:34;4.45;;;3.10;;
84329;SDS011;74510;42.676;23.432;2024-01-30T10:04:00;4.32;;;2.90;;
84329;SDS011;74510;42.676;23.432;2024-01-30T10:06:26;4.25;;;2.47;;
84329;SDS011;74510;42.676;23.432;2024-01-30T10:08:52;4.13;;;2.83;;
84329;SDS011;74510;42.676;23.432;2024-01-30T10:11:18;5.63;;;2.28;;
84329;SDS011;74510;42.676;23.432;2024-01-30T10:13:43;3.35;;;2.05;;
84329;SDS011;74510;42.676;23.432;2024-01-30T10:16:09;6.00;;;2.95;;
84329;SDS011;74510;42.676;23.432;2024-01-30T10:18:34;2.20;;;1.60;;
84329;SDS011;74510;42.676;23.432;2024-01-30T10:20:59;5.90;;;2.85;;
84329;SDS011;74510;42.676;23.432;2024-01-30T10:23:25;3.42;;;2.15;;
84329;SDS011;74510;42.676;23.432;2024-01-30T10:25:51;4.05;;;2.60;;
84329;SDS011;74510;42.676;23.432;2024-01-30T10:28:17;3.75;;;2.10;;
84329;SDS011;74510;42.676;23.432;2024-01-30T10:30:42;7.63;;;3.05;;
84329;SDS011;74510;42.676;23.432;2024-01-30T10:33:08;1.65;;;1.55;;
84329;SDS011;74510;42.676;23.432;2024-01-30T10:35:34;3.05;;;2.28;;
84329;SDS011;74510;42.676;23.432;2024-01-30T10:37:59;4.03;;;2.70;;
84329;SDS011;74510;42.676;23.432;2024-01-30T10:40:28;2.00;;;1.65;;
84329;SDS011;74510;42.676;23.432;2024-01-30T10:42:54;10.90;;;3.88;;
84329;SDS011;74510;42.676;23.432;2024-01-30T10:45:21;14.40;;;5.38;;
84329;SDS011;74510;42.676;23.432;2024-01-30T10:47:50;3.45;;;2.75;;
84329;SDS011;74510;42.676;23.432;2024-01-30T10:50:19;14.00;;;6.50;;
84329;SDS011;74510;42.676;23.432;2024-01-30T10:52:45;4.28;;;3.83;;
84329;SDS011;74510;42.676;23.432;2024-01-30T10:55:12;8.43;;;3.17;;
84329;SDS011;74510;42.676;23.432;2024-01-30T10:57:40;4.35;;;2.60;;
84329;SDS011;74510;42.676;23.432;2024-01-30T11:00:10;6.55;;;3.42;;
84329;SDS011;74510;42.676;23.432;2024-01-30T11:02:41;4.75;;;3.03;;
84329;SDS011;74510;42.676;23.432;2024-01-30T11:05:09;4.32;;;3.33;;
84329;SDS011;74510;42.676;23.432;2024-01-30T11:07:35;4.25;;;2.10;;
84329;SDS011;74510;42.676;23.432;2024-01-30T11:12:29;2.65;;;1.85;;
84329;SDS011;74510;42.676;23.432;2024-01-30T11:15:05;2.80;;;2.08;;
84329;SDS011;74510;42.676;23.432;2024-01-30T11:18:06;4.55;;;1.95;;
84329;SDS011;74510;42.676;23.432;2024-01-30T11:20:27;1.25;;;1.15;;
84329;SDS011;74510;42.676;23.432;2024-01-30T11:22:56;2.83;;;2.40;;
84329;SDS011;74510;42.676;23.432;2024-01-30T11:25:22;1.50;;;1.33;;
84329;SDS011;74510;42.676;23.432;2024-01-30T11:27:49;3.70;;;2.42;;
84329;SDS011;74510;42.676;23.432;2024-01-30T11:30:25;1.52;;;1.42;;
84329;SDS011;74510;42.676;23.432;2024-01-30T11:33:09;5.68;;;2.15;;
84329;SDS011;74510;42.676;23.432;2024-01-30T11:35:39;8.50;;;2.92;;
84329;SDS011;74510;42.676;23.432;2024-01-30T11:38:06;4.45;;;2.30;;
84329;SDS011;74510;42.676;23.432;2024-01-30T11:40:32;2.47;;;1.77;;
84329;SDS011;74510;42.676;23.432;2024-01-30T11:42:59;1.73;;;1.63;;
84329;SDS011;74510;42.676;23.432;2024-01-30T11:45:26;5.25;;;2.15;;
84329;SDS011;74510;42.676;23.432;2024-01-30T11:47:52;5.80;;;2.83;;
84329;SDS011;74510;42.676;23.432;2024-01-30T11:50:18;3.30;;;1.75;;
84329;SDS011;74510;42.676;23.432;2024-01-30T11:52:44;1.98;;;1.60;;
84329;SDS011;74510;42.676;23.432;2024-01-30T11:55:10;3.55;;;1.95;;
84329;SDS011;74510;42.676;23.432;2024-01-30T11:57:35;2.03;;;1.77;;
84329;SDS011;74510;42.676;23.432;2024-01-30T12:00:04;2.88;;;1.52;;
84329;SDS011;74510;42.676;23.432;2024-01-30T12:02:35;3.78;;;1.90;;
84329;SDS011;74510;42.676;23.432;2024-01-30T12:05:05;3.70;;;2.53;;
84329;SDS011;74510;42.676;23.432;2024-01-30T12:07:31;3.40;;;1.77;;
84329;SDS011;74510;42.676;23.432;2024-01-30T12:09:57;8.60;;;3.45;;
84329;SDS011;74510;42.676;23.432;2024-01-30T12:12:23;4.30;;;2.55;;
84329;SDS011;74510;42.676;23.432;2024-01-30T12:17:27;2.95;;;1.23;;
84329;SDS011;74510;42.676;23.432;2024-01-30T12:22:39;3.05;;;2.50;;
84329;SDS011;74510;42.676;23.432;2024-01-30T12:25:10;3.53;;;2.30;;
84329;SDS011;74510;42.676;23.432;2024-01-30T12:27:38;19.63;;;6.13;;
84329;SDS011;74510;42.676;23.432;2024-01-30T12:30:14;6.30;;;4.10;;
84329;SDS011;74510;42.676;23.432;2024-01-30T12:32:40;13.70;;;6.32;;
84329;SDS011;74510;42.676;23.432;2024-01-30T12:35:12;9.05;;;3.83;;
84329;SDS011;74510;42.676;23.432;2024-01-30T12:37:39;3.13;;;2.30;;
84329;SDS011;74510;42.676;23.432;2024-01-30T12:40:05;1.92;;;1.50;;
84329;SDS011;74510;42.676;23.432;2024-01-30T12:44:58;4.75;;;2.42;;
84329;SDS011;74510;42.676;23.432;2024-01-30T12:47:24;4.78;;;2.33;;
84329;SDS011;74510;42.676;23.432;2024-01-30T12:49:49;4.90;;;2.63;;
84329;SDS011;74510;42.676;23.432;2024-01-30T12:52:18;4.00;;;3.00;;
84329;SDS011;74510;42.676;23.432;2024-01-30T12:54:44;5.30;;;2.67;;
84329;SDS011;74510;42.676;23.432;2024-01-30T12:57:10;5.10;;;3.35;;
84329;SDS011;74510;42.676;23.432;2024-01-30T12:59:35;4.05;;;3.05;;
84329;SDS011;74510;42.676;23.432;2024-01-30T13:02:01;4.45;;;3.20;;
84329;SDS011;74510;42.676;23.432;2024-01-30T13:04:28;7.32;;;2.83;;
84329;SDS011;74510;42.676;23.432;2024-01-30T13:06:53;4.05;;;2.72;;
84329;SDS011;74510;42.676;23.432;2024-01-30T13:09:19;4.70;;;2.63;;
84329;SDS011;74510;42.676;23.432;2024-01-30T13:11:45;5.45;;;2.15;;
84329;SDS011;74510;42.676;23.432;2024-01-30T13:14:10;3.25;;;1.92;;
84329;SDS011;74510;42.676;23.432;2024-01-30T13:16:36;3.22;;;2.13;;
84329;SDS011;74510;42.676;23.432;2024-01-30T13:19:01;4.55;;;2.97;;
84329;SDS011;74510;42.676;23.432;2024-01-30T13:21:27;4.10;;;3.38;;
84329;SDS011;74510;42.676;23.432;2024-01-30T13:23:53;4.65;;;2.25;;
84329;SDS011;74510;42.676;23.432;2024-01-30T13:26:20;2.60;;;2.35;;
84329;SDS011;74510;42.676;23.432;2024-01-30T13:28:46;4.20;;;3.00;;
84329;SDS011;74510;42.676;23.432;2024-01-30T13:31:12;5.90;;;4.18;;
84329;SDS011;74510;42.676;23.432;2024-01-30T13:33:38;1.80;;;1.55;;
84329;SDS011;74510;42.676;23.432;2024-01-30T13:36:03;1.58;;;1.30;;
84329;SDS011;74510;42.676;23.432;2024-01-30T13:38:29;3.08;;;2.42;;
84329;SDS011;74510;42.676;23.432;2024-01-30T13:40:54;5.97;;;3.67;;
84329;SDS011;74510;42.676;23.432;2024-01-30T13:43:19;4.75;;;2.20;;
84329;SDS011;74510;42.676;23.432;2024-01-30T13:45:45;3.20;;;2.40;;
84329;SDS011;74510;42.676;23.432;2024-01-30T13:48:11;6.72;;;3.20;;
84329;SDS011;74510;42.676;23.432;2024-01-30T13:50:37;2.80;;;1.83;;
84329;SDS011;74510;42.676;23.432;2024-01-30T13:53:02;2.70;;;2.25;;
84329;SDS011;74510;42.676;23.432;2024-01-30T13:55:29;4.20;;;2.78;;
84329;SDS011;74510;42.676;23.432;2024-01-30T13:57:54;5.35;;;1.73;;
84329;SDS011;74510;42.676;23.432;2024-01-30T14:00:21;3.03;;;2.65;;
84329;SDS011;74510;42.676;23.432;2024-01-30T14:02:47;5.75;;;2.53;;
84329;SDS011;74510;42.676;23.432;2024-01-30T14:05:12;2.50;;;1.70;;
84329;SDS011;74510;42.676;23.432;2024-01-30T14:07:39;3.17;;;2.30;;
84329;SDS011;74510;42.676;23.432;2024-01-30T14:10:05;6.10;;;4.07;;
84329;SDS011;74510;42.676;23.432;2024-01-30T14:12:31;9.18;;;4.00;;
84329;SDS011;74510;42.676;23.432;2024-01-30T14:14:56;5.53;;;2.33;;
84329;SDS011;74510;42.676;23.432;2024-01-30T14:17:21;2.78;;;2.03;;
84329;SDS011;74510;42.676;23.432;2024-01-30T14:19:47;3.17;;;1.75;;
84329;SDS011;74510;42.676;23.432;2024-01-30T14:22:12;2.80;;;2.60;;
84329;SDS011;74510;42.676;23.432;2024-01-30T14:24:38;2.03;;;1.83;;
84329;SDS011;74510;42.676;23.432;2024-01-30T14:27:03;3.58;;;2.80;;
84329;SDS011;74510;42.676;23.432;2024-01-30T14:29:29;1.88;;;1.20;;
84329;SDS011;74510;42.676;23.432;2024-01-30T14:31:55;3.75;;;2.67;;
84329;SDS011;74510;42.676;23.432;2024-01-30T14:34:21;4.22;;;2.67;;